Time;durP1;ratioP1;P1;durP2;ratioP2;P2;SDS_P1;SDS_P2;PMS_P1;PMS_P2;Temp;Humidity;BMP_temperature;BMP_pressure;BME280_temperature;BME280_humidity;BME280_pressure;Samples;Min_cycle;Max_cycle;Signal;HPM_P1;HPM_P2
2022/04/21 00:01:40;;;;;;;;;;;8.00;99.90;;;;;;5157771;27;20019;-71
2022/04/21 00:04:05;;;;;;;;;;;8.00;99.90;;;;;;5158554;27;20399;-72
2022/04/21 00:06:31;;;;;;;;;;;8.80;99.90;;;;;;5158552;27;20394;-70
2022/04/21 00:08:57;;;;;;;;;;;8.00;99.90;;;;;;5158280;27;20327;-70
2022/04/21 00:11:22;;;;;;;;;;;8.00;99.90;;;;;;5158324;27;19922;-70
2022/04/21 00:13:48;;;;;;;;;;;8.30;99.90;;;;;;5158102;27;20009;-72
2022/04/21 00:16:14;;;;;;;;;;;8.00;99.90;;;;;;5158239;27;19972;-72
2022/04/21 00:18:40;;;;;;;;;;;8.00;99.90;;;;;;5158151;27;20416;-71
2022/04/21 00:21:05;;;;;;;;;;;8.30;99.90;;;;;;5137346;27;19923;-71
2022/04/21 00:23:32;;;;;;;;;;;8.00;99.90;;;;;;5152045;27;19923;-71
2022/04/21 00:25:59;;;;;;;;;;;8.00;99.90;;;;;;5158050;27;19967;-69
2022/04/21 00:28:25;;;;;;;;;;;9.10;99.90;;;;;;5139622;27;19970;-70
2022/04/21 00:30:51;;;;;;;;;;;8.00;99.90;;;;;;5157715;27;19930;-70
2022/04/21 00:33:17;;;;;;;;;;;8.00;99.90;;;;;;5158056;27;19924;-69
2022/04/21 00:35:42;;;;;;;;;;;8.00;99.90;;;;;;5157756;27;19927;-70
2022/04/21 00:38:08;;;;;;;;;;;7.90;99.90;;;;;;5157666;27;19927;-71
2022/04/21 00:40:33;;;;;;;;;;;8.00;99.90;;;;;;5157612;27;19923;-70
2022/04/21 00:43:00;;;;;;;;;;;8.10;99.90;;;;;;5157664;27;19926;-70
2022/04/21 00:45:27;;;;;;;;;;;8.20;99.90;;;;;;5157418;27;20339;-71
2022/04/21 00:47:55;;;;;;;;;;;7.90;99.90;;;;;;5157694;27;20370;-70
2022/04/21 00:50:23;;;;;;;;;;;8.00;99.90;;;;;;5157592;27;19923;-70
2022/04/21 00:52:48;;;;;;;;;;;7.90;99.90;;;;;;5157278;27;19923;-69
2022/04/21 00:55:14;;;;;;;;;;;8.20;99.90;;;;;;5157426;27;19923;-70
2022/04/21 00:57:41;;;;;;;;;;;7.90;99.90;;;;;;5157260;27;19930;-70
2022/04/21 01:00:07;;;;;;;;;;;7.90;99.90;;;;;;5138468;27;20293;-71
2022/04/21 01:05:32;;;;;;;;;;;7.90;99.90;;;;;;5157254;27;19986;-71
2022/04/21 01:08:02;;;;;;;;;;;7.80;99.90;;;;;;5157132;27;19929;-68
2022/04/21 01:10:28;;;;;;;;;;;7.80;99.90;;;;;;5138893;27;19970;-70
2022/04/21 01:12:54;;;;;;;;;;;9.10;99.90;;;;;;5137579;27;19923;-72
2022/04/21 01:15:20;;;;;;;;;;;7.70;99.90;;;;;;5157087;27;20285;-70
2022/04/21 01:17:45;;;;;;;;;;;7.60;99.90;;;;;;5138634;27;19975;-69
2022/04/21 01:20:38;;;;;;;;;;;7.80;99.90;;;;;;5157081;27;19930;-70
2022/04/21 01:23:03;;;;;;;;;;;7.50;99.90;;;;;;5152735;27;19967;-70
2022/04/21 01:25:36;;;;;;;;;;;7.50;99.90;;;;;;5156681;27;19927;-70
2022/04/21 01:28:02;;;;;;;;;;;6.90;99.90;;;;;;5156780;27;20389;-69
2022/04/21 01:30:27;;;;;;;;;;;7.40;99.90;;;;;;5156754;27;19976;-69
2022/04/21 01:32:53;;;;;;;;;;;7.40;99.90;;;;;;5138560;27;19926;-70
2022/04/21 01:35:18;;;;;;;;;;;7.40;99.90;;;;;;5156570;27;20372;-70
2022/04/21 01:43:12;;;;;;;;;;;7.50;99.90;;;;;;5156457;27;20404;-69
2022/04/21 01:45:38;;;;;;;;;;;7.30;99.90;;;;;;5156416;27;19923;-72
2022/04/21 01:48:04;;;;;;;;;;;7.30;99.90;;;;;;5156376;27;19936;-70
2022/04/21 01:50:30;;;;;;;;;;;7.30;99.90;;;;;;5137797;27;20469;-71
2022/04/21 01:52:56;;;;;;;;;;;7.70;99.90;;;;;;5155374;27;19963;-70
2022/04/21 01:55:22;;;;;;;;;;;7.30;99.90;;;;;;5156314;27;19927;-70
2022/04/21 01:57:47;;;;;;;;;;;7.30;99.90;;;;;;5137223;27;20331;-70
2022/04/21 02:00:13;;;;;;;;;;;7.30;99.90;;;;;;5156258;27;19923;-71
2022/04/21 02:02:39;;;;;;;;;;;7.30;99.90;;;;;;5156092;27;19923;-70
2022/04/21 02:05:04;;;;;;;;;;;7.40;99.90;;;;;;5155947;27;19923;-68
2022/04/21 02:07:30;;;;;;;;;;;7.20;99.90;;;;;;5155902;27;20030;-70
2022/04/21 02:09:55;;;;;;;;;;;7.20;99.90;;;;;;5156289;27;19930;-72
2022/04/21 02:12:24;;;;;;;;;;;8.20;99.90;;;;;;5156020;27;20290;-71
2022/04/21 02:14:50;;;;;;;;;;;7.90;99.90;;;;;;5137685;27;20377;-70
2022/04/21 02:17:15;;;;;;;;;;;7.20;99.90;;;;;;5155711;27;19923;-71
2022/04/21 02:19:41;;;;;;;;;;;7.60;99.90;;;;;;5155801;27;20410;-70
2022/04/21 02:22:07;;;;;;;;;;;8.90;99.90;;;;;;5137065;27;19923;-68
2022/04/21 02:24:32;;;;;;;;;;;7.80;99.90;;;;;;5155519;27;19923;-68
2022/04/21 02:26:58;;;;;;;;;;;7.30;99.90;;;;;;5155788;27;19967;-70
2022/04/21 02:29:23;;;;;;;;;;;7.20;99.90;;;;;;5155752;27;19923;-71
2022/04/21 02:31:49;;;;;;;;;;;7.20;99.90;;;;;;5155578;27;20370;-71
2022/04/21 02:34:15;;;;;;;;;;;7.20;99.90;;;;;;5137420;27;20282;-71
2022/04/21 02:36:40;;;;;;;;;;;8.30;99.90;;;;;;5155737;27;20369;-72
2022/04/21 02:39:06;;;;;;;;;;;7.20;99.90;;;;;;5155519;27;19923;-70
2022/04/21 02:41:31;;;;;;;;;;;7.30;99.90;;;;;;5155710;27;19926;-69
2022/04/21 02:43:57;;;;;;;;;;;7.20;99.90;;;;;;5155613;27;19981;-69
2022/04/21 02:46:25;;;;;;;;;;;7.80;99.90;;;;;;5155453;27;20396;-71
2022/04/21 02:48:50;;;;;;;;;;;7.70;99.90;;;;;;5155474;27;19938;-69
2022/04/21 02:51:16;;;;;;;;;;;7.20;99.90;;;;;;5155298;27;19923;-71
2022/04/21 02:59:10;;;;;;;;;;;7.20;99.90;;;;;;5155083;27;20384;-71
2022/04/21 03:01:35;;;;;;;;;;;8.20;99.90;;;;;;5155456;27;20010;-70
2022/04/21 03:04:01;;;;;;;;;;;7.30;99.90;;;;;;5155135;27;19923;-69
2022/04/21 03:06:26;;;;;;;;;;;7.40;99.90;;;;;;5155518;27;19923;-70
2022/04/21 03:08:52;;;;;;;;;;;7.20;99.90;;;;;;5155334;27;19927;-70
2022/04/21 03:11:17;;;;;;;;;;;7.20;99.90;;;;;;5155279;27;19923;-70
2022/04/21 03:13:43;;;;;;;;;;;8.10;99.90;;;;;;5155181;27;19930;-70
2022/04/21 03:16:08;;;;;;;;;;;7.70;99.90;;;;;;5155065;27;19934;-70
2022/04/21 03:18:34;;;;;;;;;;;7.60;99.90;;;;;;5154978;27;20018;-69
2022/04/21 03:26:28;;;;;;;;;;;8.50;99.90;;;;;;5155089;27;19933;-70
2022/04/21 03:28:53;;;;;;;;;;;6.00;99.90;;;;;;5154952;27;19923;-69
2022/04/21 03:31:19;;;;;;;;;;;7.10;99.90;;;;;;5136410;27;19972;-70
2022/04/21 03:33:44;;;;;;;;;;;8.10;99.90;;;;;;5136731;27;19976;-72
2022/04/21 03:36:11;;;;;;;;;;;7.10;99.90;;;;;;5157055;27;20286;-71
2022/04/21 03:38:38;;;;;;;;;;;7.10;99.90;;;;;;5158840;27;19946;-70
2022/04/21 03:41:04;;;;;;;;;;;7.90;99.90;;;;;;5158837;27;19923;-70
2022/04/21 03:43:30;;;;;;;;;;;7.00;99.90;;;;;;5158819;27;19923;-71
2022/04/21 03:45:55;;;;;;;;;;;7.00;99.90;;;;;;5158667;27;19930;-69
2022/04/21 03:48:21;;;;;;;;;;;7.00;99.90;;;;;;5158622;27;19927;-70
2022/04/21 03:50:47;;;;;;;;;;;7.00;99.90;;;;;;5140600;27;19923;-70
2022/04/21 03:53:12;;;;;;;;;;;7.70;99.90;;;;;;5158799;27;20297;-70
2022/04/21 03:55:38;;;;;;;;;;;7.00;99.90;;;;;;5140465;27;20023;-70
2022/04/21 03:58:03;;;;;;;;;;;7.00;99.90;;;;;;5139585;27;19924;-71
2022/04/21 04:00:30;;;;;;;;;;;7.00;99.90;;;;;;5140217;27;19930;-71
2022/04/21 04:02:56;;;;;;;;;;;7.00;99.90;;;;;;5158355;27;20328;-69
2022/04/21 04:05:21;;;;;;;;;;;7.00;99.90;;;;;;5140437;27;19927;-69
2022/04/21 04:13:16;;;;;;;;;;;8.40;99.90;;;;;;5139925;27;20000;-70
2022/04/21 04:15:42;;;;;;;;;;;6.90;99.90;;;;;;5158322;27;20040;-72
2022/04/21 04:18:08;;;;;;;;;;;8.20;99.90;;;;;;5139688;27;19934;-71
2022/04/21 04:20:34;;;;;;;;;;;6.90;99.90;;;;;;5158215;27;19978;-69
2022/04/21 04:22:59;;;;;;;;;;;7.80;99.90;;;;;;5158118;27;20017;-69
2022/04/21 04:25:25;;;;;;;;;;;8.30;99.90;;;;;;5139637;27;20360;-73
2022/04/21 04:27:50;;;;;;;;;;;8.00;99.90;;;;;;5157948;27;20423;-70
2022/04/21 04:30:16;;;;;;;;;;;6.80;99.90;;;;;;5139615;27;19974;-71
2022/04/21 04:32:41;;;;;;;;;;;5.80;99.90;;;;;;5122635;27;20177;-69
2022/04/21 04:35:07;;;;;;;;;;;6.80;99.90;;;;;;5157858;27;19931;-70
2022/04/21 04:37:33;;;;;;;;;;;5.30;99.90;;;;;;5157710;27;19923;-71
2022/04/21 04:39:59;;;;;;;;;;;6.80;99.90;;;;;;5157620;27;19923;-69
2022/04/21 04:42:25;;;;;;;;;;;7.00;99.90;;;;;;5157658;27;19923;-70
2022/04/21 04:47:36;;;;;;;;;;;7.50;99.90;;;;;;5157324;27;19996;-70
2022/04/21 04:50:03;;;;;;;;;;;6.60;99.90;;;;;;5157539;27;19934;-70
2022/04/21 04:52:29;;;;;;;;;;;6.70;99.90;;;;;;5157304;27;20446;-71
2022/04/21 04:54:54;;;;;;;;;;;6.70;99.90;;;;;;5157485;27;19972;-70
2022/04/21 04:57:20;;;;;;;;;;;6.80;99.90;;;;;;5139005;27;20009;-70
2022/04/21 04:59:45;;;;;;;;;;;6.70;99.90;;;;;;5139101;27;19923;-72
2022/04/21 05:02:11;;;;;;;;;;;6.70;99.90;;;;;;5157320;27;20030;-70
2022/04/21 05:04:37;;;;;;;;;;;6.70;99.90;;;;;;5157462;27;19923;-71
2022/04/21 05:07:03;;;;;;;;;;;6.70;99.90;;;;;;5157275;27;19923;-69
2022/04/21 05:09:29;;;;;;;;;;;6.70;99.90;;;;;;5157227;27;20373;-69
2022/04/21 05:11:55;;;;;;;;;;;7.00;99.90;;;;;;5138902;27;19923;-69
2022/04/21 05:14:22;;;;;;;;;;;6.70;99.90;;;;;;5138751;27;19923;-70
2022/04/21 05:16:48;;;;;;;;;;;6.80;99.90;;;;;;5157127;27;19923;-69
2022/04/21 05:19:14;;;;;;;;;;;6.80;99.90;;;;;;5138552;27;20266;-71
2022/04/21 05:21:41;;;;;;;;;;;6.80;99.90;;;;;;5157073;27;20009;-72
2022/04/21 05:24:07;;;;;;;;;;;6.90;99.90;;;;;;5138703;27;19923;-70
2022/04/21 05:26:33;;;;;;;;;;;6.90;99.90;;;;;;5138678;27;19934;-72
2022/04/21 05:29:00;;;;;;;;;;;6.80;99.90;;;;;;5137641;27;19929;-68
2022/04/21 05:31:26;;;;;;;;;;;6.90;99.90;;;;;;5156868;27;19923;-70
2022/04/21 05:33:55;;;;;;;;;;;6.90;99.90;;;;;;5138342;27;19923;-68
2022/04/21 05:36:21;;;;;;;;;;;6.90;99.90;;;;;;5120490;27;19923;-70
2022/04/21 05:38:47;;;;;;;;;;;7.00;99.90;;;;;;5120440;27;20267;-70
2022/04/21 05:41:17;;;;;;;;;;;6.90;99.90;;;;;;5156401;27;19979;-71
2022/04/21 05:43:43;;;;;;;;;;;7.10;99.90;;;;;;5138161;27;19927;-70
2022/04/21 05:46:11;;;;;;;;;;;7.20;99.90;;;;;;5156514;27;19923;-69
2022/04/21 05:48:37;;;;;;;;;;;7.20;99.90;;;;;;5137977;27;20297;-70
2022/04/21 05:51:03;;;;;;;;;;;7.30;99.90;;;;;;5156308;27;19927;-70
2022/04/21 05:53:31;;;;;;;;;;;7.30;99.90;;;;;;5156374;27;20293;-71
2022/04/21 05:55:56;;;;;;;;;;;7.80;99.90;;;;;;5156246;27;19923;-70
2022/04/21 05:58:22;;;;;;;;;;;7.40;99.90;;;;;;5155325;27;20022;-72
2022/04/21 06:00:48;;;;;;;;;;;7.50;99.90;;;;;;5156316;27;19975;-70
2022/04/21 06:03:14;;;;;;;;;;;7.90;99.90;;;;;;5156310;27;19974;-70
2022/04/21 06:05:40;;;;;;;;;;;7.60;99.90;;;;;;5137918;27;19972;-72
2022/04/21 06:08:08;;;;;;;;;;;7.70;99.90;;;;;;5137942;27;19923;-71
2022/04/21 06:10:34;;;;;;;;;;;7.80;99.90;;;;;;5155985;27;19930;-70
2022/04/21 06:13:01;;;;;;;;;;;7.80;99.90;;;;;;5155915;27;20321;-69
2022/04/21 06:15:26;;;;;;;;;;;8.40;99.90;;;;;;5156002;27;19929;-69
2022/04/21 06:17:52;;;;;;;;;;;8.10;99.90;;;;;;5155864;27;20444;-70
2022/04/21 06:20:17;;;;;;;;;;;8.40;99.90;;;;;;5155863;27;20294;-69
2022/04/21 06:22:43;;;;;;;;;;;8.20;99.90;;;;;;5137123;27;19923;-71
2022/04/21 06:25:08;;;;;;;;;;;8.30;99.90;;;;;;5155774;27;19931;-71
2022/04/21 06:27:34;;;;;;;;;;;8.40;99.90;;;;;;5154401;27;20264;-69
2022/04/21 06:29:59;;;;;;;;;;;7.50;99.90;;;;;;5155527;27;19923;-68
2022/04/21 06:32:25;;;;;;;;;;;8.60;99.90;;;;;;5136865;27;19927;-70
2022/04/21 06:34:51;;;;;;;;;;;8.70;99.90;;;;;;5155476;27;20014;-69
2022/04/21 06:37:16;;;;;;;;;;;8.70;99.90;;;;;;5155329;27;19923;-71
2022/04/21 06:39:42;;;;;;;;;;;8.90;99.90;;;;;;5136794;27;19931;-69
2022/04/21 06:42:07;;;;;;;;;;;9.00;99.90;;;;;;5137217;27;19927;-69
2022/04/21 06:50:09;;;;;;;;;;;9.30;99.90;;;;;;5155417;27;19927;-70
2022/04/21 06:52:34;;;;;;;;;;;9.60;99.90;;;;;;5136637;27;20436;-70
2022/04/21 06:55:00;;;;;;;;;;;9.60;99.90;;;;;;5155243;27;19923;-70
2022/04/21 06:57:25;;;;;;;;;;;9.60;99.90;;;;;;5137098;27;19927;-72
2022/04/21 06:59:51;;;;;;;;;;;9.60;99.90;;;;;;5155330;27;19936;-69
2022/04/21 07:02:16;;;;;;;;;;;9.80;99.90;;;;;;5155232;27;19923;-69
2022/04/21 07:04:42;;;;;;;;;;;10.70;99.90;;;;;;5155314;27;19927;-71
2022/04/21 07:07:07;;;;;;;;;;;10.10;99.90;;;;;;5155186;27;19927;-69
2022/04/21 07:09:33;;;;;;;;;;;10.00;99.90;;;;;;5138319;27;19923;-67
2022/04/21 07:11:59;;;;;;;;;;;10.10;99.90;;;;;;5159326;27;20059;-71
2022/04/21 07:14:24;;;;;;;;;;;10.20;99.90;;;;;;5141327;27;19923;-69
2022/04/21 07:16:50;;;;;;;;;;;10.30;99.90;;;;;;5159308;27;19924;-69
2022/04/21 07:19:15;;;;;;;;;;;10.30;99.90;;;;;;5159202;27;19923;-70
2022/04/21 07:21:41;;;;;;;;;;;10.30;99.90;;;;;;5159116;27;19930;-71
2022/04/21 07:24:06;;;;;;;;;;;10.40;99.90;;;;;;5159133;27;19923;-71
2022/04/21 07:26:32;;;;;;;;;;;10.50;99.90;;;;;;5159097;27;19927;-71
2022/04/21 07:28:58;;;;;;;;;;;10.50;99.90;;;;;;5140928;27;19972;-69
2022/04/21 07:31:23;;;;;;;;;;;10.50;99.90;;;;;;5158935;27;19923;-69
2022/04/21 07:33:49;;;;;;;;;;;10.60;99.90;;;;;;5140915;27;19974;-71
2022/04/21 07:36:14;;;;;;;;;;;10.70;99.90;;;;;;5157997;27;19923;-69
2022/04/21 07:38:40;;;;;;;;;;;10.70;99.90;;;;;;5158066;27;20017;-69
2022/04/21 07:41:06;;;;;;;;;;;10.80;99.90;;;;;;5158518;27;19923;-70
2022/04/21 07:43:32;;;;;;;;;;;10.80;99.90;;;;;;5139891;27;19927;-71
2022/04/21 07:45:57;;;;;;;;;;;10.80;99.90;;;;;;5158644;27;20026;-71
2022/04/21 07:48:23;;;;;;;;;;;10.90;99.90;;;;;;5158865;27;19923;-70
2022/04/21 07:50:49;;;;;;;;;;;11.00;99.90;;;;;;5158581;27;19966;-71
2022/04/21 07:53:15;;;;;;;;;;;11.00;99.90;;;;;;5157751;27;20381;-71
2022/04/21 07:55:42;;;;;;;;;;;11.20;99.90;;;;;;5158308;27;20061;-72
2022/04/21 07:58:08;;;;;;;;;;;11.20;99.90;;;;;;5158150;27;20301;-70
2022/04/21 08:00:36;;;;;;;;;;;11.30;99.90;;;;;;5158428;27;19923;-71
2022/04/21 08:03:03;;;;;;;;;;;11.50;99.90;;;;;;5157944;27;20293;-69
2022/04/21 08:05:29;;;;;;;;;;;11.60;99.90;;;;;;5158245;27;19986;-71
2022/04/21 08:07:55;;;;;;;;;;;11.60;99.90;;;;;;5139948;27;19969;-73
2022/04/21 08:10:22;;;;;;;;;;;11.70;99.90;;;;;;5158110;27;19927;-72
2022/04/21 08:12:49;;;;;;;;;;;11.60;99.90;;;;;;5157912;27;20331;-73
2022/04/21 08:15:20;;;;;;;;;;;11.80;99.90;;;;;;5139647;27;19923;-73
2022/04/21 08:17:46;;;;;;;;;;;11.90;99.90;;;;;;5157772;27;19927;-73
2022/04/21 08:20:12;;;;;;;;;;;11.90;99.90;;;;;;5157772;27;20362;-72
2022/04/21 08:22:38;;;;;;;;;;;12.00;99.90;;;;;;5157133;27;19923;-73
2022/04/21 08:33:17;;;;;;;;;;;12.30;99.90;;;;;;5139286;27;20430;-72
2022/04/21 08:35:44;;;;;;;;;;;12.30;99.90;;;;;;5157307;27;19931;-70
2022/04/21 08:38:13;;;;;;;;;;;12.40;99.90;;;;;;5157320;27;20278;-71
2022/04/21 08:40:42;;;;;;;;;;;12.50;99.90;;;;;;5157512;27;19923;-71
2022/04/21 08:43:15;;;;;;;;;;;12.50;99.90;;;;;;5157704;27;19948;-73
2022/04/21 08:45:44;;;;;;;;;;;12.60;95.10;;;;;;5157392;27;19923;-72
2022/04/21 08:48:11;;;;;;;;;;;12.60;91.40;;;;;;5139097;27;19971;-72
2022/04/21 08:50:38;;;;;;;;;;;12.60;91.00;;;;;;5138966;27;19923;-72
2022/04/21 08:53:04;;;;;;;;;;;12.70;93.00;;;;;;5139016;27;19923;-73
2022/04/21 08:55:30;;;;;;;;;;;12.70;92.70;;;;;;5157378;27;19975;-71
2022/04/21 08:57:56;;;;;;;;;;;12.80;94.80;;;;;;5157031;27;20006;-71
2022/04/21 09:00:22;;;;;;;;;;;12.90;97.30;;;;;;5157200;27;20394;-71
2022/04/21 09:02:49;;;;;;;;;;;13.00;94.20;;;;;;5138687;27;19970;-71
2022/04/21 09:05:15;;;;;;;;;;;13.10;91.80;;;;;;5156916;27;19992;-71
2022/04/21 09:07:44;;;;;;;;;;;13.10;91.50;;;;;;5157052;27;20016;-71
2022/04/21 09:10:13;;;;;;;;;;;13.10;90.40;;;;;;5157197;27;19923;-70
2022/04/21 09:12:43;;;;;;;;;;;13.20;92.30;;;;;;5157045;27;19973;-73
2022/04/21 09:15:10;;;;;;;;;;;13.20;92.10;;;;;;5156818;27;19976;-71
2022/04/21 09:17:37;;;;;;;;;;;13.40;94.90;;;;;;5137546;27;19923;-70
2022/04/21 09:20:05;;;;;;;;;;;13.40;91.40;;;;;;5137375;27;19941;-71
2022/04/21 09:22:33;;;;;;;;;;;13.50;90.60;;;;;;5156814;27;19923;-71
2022/04/21 09:24:59;;;;;;;;;;;13.50;92.20;;;;;;5156742;27;19923;-72
2022/04/21 09:27:37;;;;;;;;;;;13.70;91.90;;;;;;5156570;27;19923;-71
2022/04/21 09:30:03;;;;;;;;;;;13.70;93.30;;;;;;5156518;27;19931;-70
2022/04/21 09:32:28;;;;;;;;;;;13.80;90.80;;;;;;5155599;27;20392;-71
2022/04/21 09:34:54;;;;;;;;;;;13.90;88.10;;;;;;5156086;27;20282;-71
2022/04/21 09:37:20;;;;;;;;;;;14.10;91.60;;;;;;5156488;27;19930;-71
2022/04/21 09:39:50;;;;;;;;;;;14.20;88.60;;;;;;5156660;27;19923;-73
2022/04/21 09:42:22;;;;;;;;;;;14.30;91.20;;;;;;5156603;27;19923;-73
2022/04/21 09:47:32;;;;;;;;;;;14.50;80.40;;;;;;5137665;27;20006;-71
2022/04/21 09:50:09;;;;;;;;;;;14.50;77.60;;;;;;5137832;27;20405;-72
2022/04/21 09:52:35;;;;;;;;;;;14.60;75.90;;;;;;5156346;27;19923;-71
2022/04/21 09:55:30;;;;;;;;;;;14.70;75.00;;;;;;5124286;27;19912;-71
2022/04/21 09:58:05;;;;;;;;;;;14.70;71.60;;;;;;5090314;28;19924;-71
2022/04/21 10:00:31;;;;;;;;;;;14.60;69.80;;;;;;5091197;28;20411;-69
2022/04/21 10:02:57;;;;;;;;;;;14.70;70.30;;;;;;5091164;28;19932;-71
2022/04/21 10:05:23;;;;;;;;;;;14.70;71.50;;;;;;5090046;28;20386;-70
2022/04/21 10:07:49;;;;;;;;;;;14.80;72.00;;;;;;5091034;28;20406;-71
2022/04/21 10:10:16;;;;;;;;;;;14.90;69.60;;;;;;5090826;28;19928;-71
2022/04/21 10:12:42;;;;;;;;;;;14.90;67.40;;;;;;5091077;28;19986;-71
2022/04/21 10:15:08;;;;;;;;;;;15.00;68.70;;;;;;5089899;28;20037;-72
2022/04/21 10:17:34;;;;;;;;;;;14.90;69.80;;;;;;5089565;28;20307;-69
2022/04/21 10:20:00;;;;;;;;;;;14.90;69.20;;;;;;5090786;28;19928;-72
2022/04/21 10:22:26;;;;;;;;;;;14.90;70.20;;;;;;5090593;28;20347;-69
2022/04/21 10:24:58;;;;;;;;;;;14.80;70.60;;;;;;5090507;28;19978;-71
2022/04/21 10:27:37;;;;;;;;;;;14.80;68.30;;;;;;5090740;28;19924;-71
2022/04/21 10:30:09;;;;;;;;;;;14.70;68.40;;;;;;5090705;28;19931;-71
2022/04/21 10:32:45;;;;;;;;;;;14.80;70.40;;;;;;5072631;28;20422;-70
2022/04/21 10:35:20;;;;;;;;;;;14.80;71.40;;;;;;5090430;28;20449;-69
2022/04/21 10:37:46;;;;;;;;;;;14.90;71.40;;;;;;5090290;28;20430;-69
2022/04/21 10:40:15;;;;;;;;;;;14.90;71.00;;;;;;5090617;28;20019;-71
2022/04/21 10:42:53;;;;;;;;;;;14.80;69.90;;;;;;5089476;28;19928;-73
2022/04/21 10:45:22;;;;;;;;;;;14.80;70.00;;;;;;5090381;28;19924;-71
2022/04/21 10:48:05;;;;;;;;;;;14.80;68.50;;;;;;5072260;28;19970;-70
2022/04/21 10:50:31;;;;;;;;;;;14.80;69.10;;;;;;5090401;28;19972;-70
2022/04/21 10:58:37;;;;;;;;;;;14.80;68.00;;;;;;5089882;28;19925;-70
2022/04/21 11:01:12;;;;;;;;;;;14.80;68.50;;;;;;5089915;28;20387;-71
2022/04/21 11:03:39;;;;;;;;;;;14.90;68.10;;;;;;5088929;28;19969;-68
2022/04/21 11:06:08;;;;;;;;;;;14.90;70.10;;;;;;5078769;28;20011;-72
2022/04/21 11:08:34;;;;;;;;;;;15.00;68.80;;;;;;5076387;28;19928;-70
2022/04/21 11:11:00;;;;;;;;;;;15.20;67.40;;;;;;5076296;28;20312;-70
2022/04/21 11:13:44;;;;;;;;;;;15.10;67.20;;;;;;5076056;28;19925;-71
2022/04/21 11:16:10;;;;;;;;;;;15.00;68.00;;;;;;5076333;28;19932;-71
2022/04/21 11:18:35;;;;;;;;;;;15.10;70.00;;;;;;5076210;28;19928;-70
2022/04/21 11:21:21;;;;;;;;;;;15.20;68.50;;;;;;5076178;28;20391;-71
2022/04/21 11:23:47;;;;;;;;;;;15.30;68.20;;;;;;5076183;28;19994;-71
2022/04/21 11:26:12;;;;;;;;;;;15.30;67.60;;;;;;5075265;28;20397;-70
2022/04/21 11:28:42;;;;;;;;;;;15.30;66.60;;;;;;5074476;28;19924;-70
2022/04/21 11:31:07;;;;;;;;;;;15.30;66.50;;;;;;5074717;28;19924;-71
2022/04/21 11:33:33;;;;;;;;;;;15.40;64.80;;;;;;5075792;28;19931;-71
2022/04/21 11:36:02;;;;;;;;;;;15.20;65.70;;;;;;5075028;28;19930;-69
2022/04/21 11:38:27;;;;;;;;;;;15.20;66.10;;;;;;5075825;28;19972;-71
2022/04/21 11:40:54;;;;;;;;;;;15.10;67.60;;;;;;5075639;28;19924;-72
2022/04/21 11:43:19;;;;;;;;;;;15.10;68.90;;;;;;5074647;28;20308;-70
2022/04/21 11:45:58;;;;;;;;;;;15.10;70.00;;;;;;5075881;28;20018;-72
2022/04/21 11:48:40;;;;;;;;;;;15.30;67.10;;;;;;5075545;28;19924;-70
2022/04/21 11:51:06;;;;;;;;;;;15.40;66.80;;;;;;5075441;28;19928;-71
2022/04/21 11:53:36;;;;;;;;;;;15.40;67.30;;;;;;5075246;28;19925;-71
2022/04/21 11:56:03;;;;;;;;;;;15.50;65.80;;;;;;5075519;28;19971;-69
2022/04/21 11:58:29;;;;;;;;;;;15.60;65.90;;;;;;5075386;28;20012;-69
2022/04/21 12:06:38;;;;;;;;;;;15.90;64.90;;;;;;5074423;28;20390;-71
2022/04/21 12:09:12;;;;;;;;;;;16.00;65.70;;;;;;5075192;28;20413;-70
2022/04/21 12:11:37;;;;;;;;;;;16.10;66.20;;;;;;5075253;28;19979;-75
2022/04/21 12:14:03;;;;;;;;;;;16.20;65.30;;;;;;5074838;28;20043;-69
2022/04/21 12:16:38;;;;;;;;;;;16.30;65.20;;;;;;5072918;28;19928;-71
2022/04/21 12:19:17;;;;;;;;;;;16.40;65.10;;;;;;5074879;28;20015;-69
2022/04/21 12:21:44;;;;;;;;;;;16.40;62.10;;;;;;5073975;28;19931;-71
2022/04/21 12:24:16;;;;;;;;;;;16.40;63.60;;;;;;5074708;28;20505;-72
2022/04/21 12:26:52;;;;;;;;;;;16.40;63.40;;;;;;5073418;28;19932;-71
2022/04/21 12:29:18;;;;;;;;;;;16.30;63.80;;;;;;5070078;28;19933;-72
2022/04/21 12:31:46;;;;;;;;;;;16.20;64.10;;;;;;5063071;28;20011;-72
2022/04/21 12:34:12;;;;;;;;;;;16.20;63.80;;;;;;5061944;28;19932;-70
2022/04/21 12:36:37;;;;;;;;;;;16.20;62.90;;;;;;5058584;28;19925;-73
2022/04/21 12:39:03;;;;;;;;;;;16.20;64.30;;;;;;5053749;28;19929;-71
2022/04/21 12:41:29;;;;;;;;;;;16.20;64.50;;;;;;5054504;28;20395;-72
2022/04/21 12:43:55;;;;;;;;;;;16.20;65.30;;;;;;5054670;28;19947;-71
2022/04/21 12:46:21;;;;;;;;;;;16.10;65.00;;;;;;5064953;28;19925;-71
2022/04/21 12:48:48;;;;;;;;;;;16.20;62.70;;;;;;5068119;28;20016;-71
2022/04/21 12:51:17;;;;;;;;;;;16.10;63.50;;;;;;5055395;28;20345;-72
2022/04/21 12:53:43;;;;;;;;;;;16.00;63.50;;;;;;5054159;28;19925;-71
2022/04/21 12:56:09;;;;;;;;;;;16.00;62.70;;;;;;5067043;28;19978;-72
2022/04/21 12:58:35;;;;;;;;;;;16.00;62.70;;;;;;5055071;28;20342;-74
2022/04/21 13:01:01;;;;;;;;;;;16.00;64.00;;;;;;5054411;28;19931;-72
2022/04/21 13:03:27;;;;;;;;;;;16.00;63.70;;;;;;5053891;28;19929;-70
2022/04/21 13:05:55;;;;;;;;;;;16.00;64.10;;;;;;5054241;28;20011;-71
2022/04/21 13:08:21;;;;;;;;;;;16.00;64.90;;;;;;5054134;28;19995;-72
2022/04/21 13:10:47;;;;;;;;;;;16.00;66.00;;;;;;5054505;28;20300;-73
2022/04/21 13:13:12;;;;;;;;;;;16.10;66.50;;;;;;5052870;28;19925;-71
2022/04/21 13:15:38;;;;;;;;;;;16.20;66.50;;;;;;5069927;28;19931;-71
2022/04/21 13:18:04;;;;;;;;;;;16.20;64.90;;;;;;5073944;28;19925;-72
2022/04/21 13:23:13;;;;;;;;;;;16.30;66.10;;;;;;5073320;28;19932;-71
2022/04/21 13:25:39;;;;;;;;;;;16.30;65.60;;;;;;5072537;28;19925;-71
2022/04/21 13:28:04;;;;;;;;;;;16.30;67.20;;;;;;5073703;28;19925;-73
2022/04/21 13:30:30;;;;;;;;;;;16.40;69.20;;;;;;5073923;28;20015;-71
2022/04/21 13:35:40;;;;;;;;;;;16.40;66.80;;;;;;5073750;28;20016;-72
2022/04/21 13:38:06;;;;;;;;;;;16.40;67.60;;;;;;5072757;28;19986;-71
2022/04/21 13:40:32;;;;;;;;;;;16.30;68.50;;;;;;5073566;28;20396;-70
2022/04/21 13:42:58;;;;;;;;;;;16.20;68.20;;;;;;5073799;28;19925;-72
2022/04/21 13:45:24;;;;;;;;;;;16.20;68.60;;;;;;5072381;28;19931;-71
2022/04/21 13:47:49;;;;;;;;;;;16.20;69.70;;;;;;5073596;28;19924;-72
2022/04/21 13:50:15;;;;;;;;;;;16.20;69.70;;;;;;5073557;28;19924;-71
2022/04/21 13:52:42;;;;;;;;;;;16.30;70.70;;;;;;5073413;28;19935;-71
2022/04/21 13:55:09;;;;;;;;;;;16.40;71.90;;;;;;5073364;28;20027;-70
2022/04/21 13:57:34;;;;;;;;;;;16.50;70.60;;;;;;5073536;28;19931;-72
2022/04/21 14:00:00;;;;;;;;;;;16.60;69.50;;;;;;5073556;28;20011;-70
2022/04/21 14:02:44;;;;;;;;;;;16.60;69.10;;;;;;5065400;28;19956;-73
2022/04/21 14:05:10;;;;;;;;;;;16.60;68.40;;;;;;5067219;28;19932;-72
2022/04/21 14:07:35;;;;;;;;;;;16.60;69.60;;;;;;5052177;28;19924;-73
2022/04/21 14:10:01;;;;;;;;;;;16.60;69.30;;;;;;5053320;28;19924;-71
2022/04/21 14:12:29;;;;;;;;;;;16.70;68.30;;;;;;5053423;28;19925;-69
2022/04/21 14:14:55;;;;;;;;;;;16.70;68.50;;;;;;5052069;28;19932;-72
2022/04/21 14:17:20;;;;;;;;;;;16.80;69.70;;;;;;5053273;28;19929;-71
2022/04/21 14:19:46;;;;;;;;;;;16.90;69.20;;;;;;5052769;28;19924;-70
2022/04/21 14:22:11;;;;;;;;;;;17.00;68.60;;;;;;5062275;28;20387;-71
2022/04/21 14:24:38;;;;;;;;;;;17.00;68.90;;;;;;5072210;28;19924;-70
2022/04/21 14:27:05;;;;;;;;;;;17.10;67.70;;;;;;5057827;28;19925;-72
2022/04/21 14:29:30;;;;;;;;;;;17.20;68.80;;;;;;5053369;28;19935;-71
2022/04/21 14:31:56;;;;;;;;;;;17.30;68.60;;;;;;5053235;28;19925;-72
2022/04/21 14:34:23;;;;;;;;;;;17.20;68.90;;;;;;5068620;28;19925;-71
2022/04/21 14:36:49;;;;;;;;;;;17.40;67.60;;;;;;5053133;28;19978;-70
2022/04/21 14:44:43;;;;;;;;;;;17.20;67.30;;;;;;5056973;28;20307;-72
2022/04/21 14:47:09;;;;;;;;;;;17.20;66.90;;;;;;5061919;28;19932;-69
2022/04/21 14:49:36;;;;;;;;;;;17.10;67.80;;;;;;5070920;28;19925;-69
2022/04/21 14:52:02;;;;;;;;;;;17.10;67.50;;;;;;5073929;28;19978;-72
2022/04/21 14:54:27;;;;;;;;;;;17.10;67.40;;;;;;5074460;28;19931;-72
2022/04/21 14:56:53;;;;;;;;;;;18.20;69.00;;;;;;5076359;28;19925;-71
2022/04/21 14:59:22;;;;;;;;;;;17.10;67.70;;;;;;5075597;28;20392;-71
2022/04/21 15:01:48;;;;;;;;;;;17.10;67.70;;;;;;5076370;28;19924;-71
2022/04/21 15:04:13;;;;;;;;;;;16.40;67.40;;;;;;5068918;28;19924;-72
2022/04/21 15:06:43;;;;;;;;;;;17.00;68.60;;;;;;5076368;28;19931;-71
2022/04/21 15:09:09;;;;;;;;;;;17.00;68.20;;;;;;5055815;28;19924;-70
2022/04/21 15:11:36;;;;;;;;;;;17.00;68.10;;;;;;5055463;28;19924;-69
2022/04/21 15:14:03;;;;;;;;;;;16.90;68.40;;;;;;5071509;28;19924;-70
2022/04/21 15:16:29;;;;;;;;;;;16.80;67.90;;;;;;5074180;28;19924;-71
2022/04/21 15:18:54;;;;;;;;;;;16.80;68.90;;;;;;5070622;28;20292;-71
2022/04/21 15:21:20;;;;;;;;;;;16.70;70.10;;;;;;5076320;28;20310;-72
2022/04/21 15:23:45;;;;;;;;;;;16.70;71.40;;;;;;5072823;28;20473;-72
2022/04/21 15:26:11;;;;;;;;;;;16.60;72.20;;;;;;5058146;28;19925;-72
2022/04/21 15:28:36;;;;;;;;;;;16.60;73.00;;;;;;5063710;28;19931;-71